Time;durP1;ratioP1;P1;durP2;ratioP2;P2;SDS_P1;SDS_P2;PMS_P1;PMS_P2;Temp;Humidity;BMP_temperature;BMP_pressure;BME280_temperature;BME280_humidity;BME280_pressure;Samples;Min_cycle;Max_cycle;Signal;HPM_P1;HPM_P2
2024/02/24 00:00:48;;;;;;;;;25.50;22.00;;;;;-143.90;100.00;74397.03;4969908;28;101752;-74
2024/02/24 00:03:15;;;;;;;;;21.00;20.00;;;;;-143.90;100.00;74394.94;4966284;28;101546;-74
2024/02/24 00:05:43;;;;;;;;;22.75;20.50;;;;;-143.90;100.00;74392.88;4978980;28;101707;-74
2024/02/24 00:08:09;;;;;;;;;25.50;21.50;;;;;-143.90;100.00;74386.69;4972420;28;103354;-74
2024/02/24 00:10:36;;;;;;;;;24.25;20.00;;;;;-143.90;100.00;74382.56;4956684;28;101663;-74
2024/02/24 00:13:03;;;;;;;;;25.00;18.50;;;;;-143.90;100.00;74382.56;4962623;28;102293;-74
2024/02/24 00:15:30;;;;;;;;;18.50;15.50;;;;;-143.90;100.00;74380.47;4972560;28;102095;-73
2024/02/24 00:17:57;;;;;;;;;21.00;16.50;;;;;-143.90;100.00;74380.47;4974095;28;103168;-74
2024/02/24 00:20:23;;;;;;;;;18.50;17.75;;;;;-143.90;100.00;74378.41;4971498;28;101626;-73
2024/02/24 00:22:50;;;;;;;;;20.25;18.00;;;;;-143.90;100.00;74378.41;4960329;28;103185;-73
2024/02/24 00:25:17;;;;;;;;;17.50;16.50;;;;;-143.90;100.00;74368.09;4961432;28;101675;-73
2024/02/24 00:27:43;;;;;;;;;17.25;15.25;;;;;-143.90;100.00;74366.00;4967257;28;103426;-73
2024/02/24 00:30:10;;;;;;;;;16.50;16.25;;;;;-143.90;100.00;74370.16;4976328;28;101810;-73
2024/02/24 00:32:37;;;;;;;;;17.75;16.00;;;;;-143.90;100.00;74370.16;4965821;28;101808;-73
2024/02/24 00:35:06;;;;;;;;;18.00;16.00;;;;;-143.90;100.00;74374.28;4965148;28;101804;-73
2024/02/24 00:37:32;;;;;;;;;23.50;17.25;;;;;-143.90;100.00;74374.28;4974396;28;103394;-73
2024/02/24 00:39:59;;;;;;;;;17.00;16.00;;;;;-143.90;100.00;74374.28;4980191;28;101941;-74
2024/02/24 00:42:26;;;;;;;;;13.00;12.25;;;;;-143.90;100.00;74374.28;4978286;28;102067;-74
2024/02/24 00:44:53;;;;;;;;;13.00;12.00;;;;;-143.90;100.00;74376.34;4976162;28;102364;-74
2024/02/24 00:47:19;;;;;;;;;18.25;13.00;;;;;-143.90;100.00;74372.22;4972044;28;105641;-74
2024/02/24 00:49:46;;;;;;;;;16.50;14.75;;;;;-143.90;100.00;74378.41;4973942;28;102573;-74
2024/02/24 00:52:13;;;;;;;;;13.00;10.25;;;;;-143.90;100.00;74382.56;4981998;28;101586;-72
2024/02/24 00:54:39;;;;;;;;;18.00;17.50;;;;;-143.90;100.00;74386.69;4966375;28;101657;-73
2024/02/24 00:57:06;;;;;;;;;20.00;16.67;;;;;-143.90;100.00;74382.56;4965988;28;103714;-73
2024/02/24 00:59:32;;;;;;;;;20.25;17.75;;;;;-143.90;100.00;74382.56;4977575;28;101627;-73
2024/02/24 01:01:59;;;;;;;;;16.50;15.00;;;;;-143.90;100.00;74384.63;4971066;28;101510;-74
2024/02/24 01:04:26;;;;;;;;;22.50;19.00;;;;;-143.90;100.00;74378.41;4970899;28;101793;-74
2024/02/24 01:06:53;;;;;;;;;19.00;17.25;;;;;-143.90;100.00;74368.09;4964534;28;103490;-74
2024/02/24 01:09:20;;;;;;;;;16.50;15.75;;;;;-143.90;100.00;74359.81;4951549;28;101939;-74
2024/02/24 01:11:47;;;;;;;;;19.75;17.00;;;;;-143.90;100.00;74353.63;4970930;28;101457;-73
2024/02/24 01:14:14;;;;;;;;;18.00;15.00;;;;;-143.90;100.00;74351.53;4973553;28;101828;-73
2024/02/24 01:16:44;;;;;;;;;16.00;13.50;;;;;-143.90;100.00;74341.22;4976237;28;105840;-73
2024/02/24 01:19:11;;;;;;;;;11.00;8.50;;;;;-143.90;100.00;74330.88;4968593;28;102184;-73
2024/02/24 01:21:41;;;;;;;;;13.00;12.00;;;;;-143.90;100.00;74330.88;4970988;28;101709;-74
2024/02/24 01:24:09;;;;;;;;;11.50;11.50;;;;;-143.90;100.00;74322.59;4979868;28;101960;-74
2024/02/24 01:26:36;;;;;;;;;10.75;10.75;;;;;-143.90;100.00;74316.41;4973860;28;103511;-73
2024/02/24 01:29:02;;;;;;;;;6.50;6.00;;;;;-143.90;100.00;74312.28;4968152;28;101993;-73
2024/02/24 01:31:29;;;;;;;;;8.75;6.75;;;;;-143.90;100.00;74306.06;4967617;28;104279;-73
2024/02/24 01:33:56;;;;;;;;;17.00;15.25;;;;;-143.90;100.00;74289.53;4966988;28;103508;-73
2024/02/24 01:36:24;;;;;;;;;17.25;13.75;;;;;-143.90;100.00;74297.81;4968909;28;103421;-73
2024/02/24 01:38:53;;;;;;;;;19.50;14.25;;;;;-143.90;100.00;74291.59;4973950;28;101969;-74
2024/02/24 01:41:20;;;;;;;;;13.50;13.00;;;;;-143.90;100.00;74283.34;4967441;28;101669;-73
2024/02/24 01:43:47;;;;;;;;;13.00;12.00;;;;;-143.90;100.00;74275.06;4972058;28;101551;-74
2024/02/24 01:46:15;;;;;;;;;8.75;8.00;;;;;-143.90;100.00;74264.72;4972706;28;107694;-73
2024/02/24 01:48:42;;;;;;;;;8.50;7.75;;;;;-143.90;100.00;74262.66;4981179;28;101765;-73
2024/02/24 01:51:10;;;;;;;;;9.50;8.25;;;;;-143.90;100.00;74260.59;4969684;28;101600;-72
2024/02/24 01:53:37;;;;;;;;;10.75;8.00;;;;;-143.90;100.00;74256.47;4965061;28;101911;-73
2024/02/24 01:56:09;;;;;;;;;7.25;7.00;;;;;-143.90;100.00;74258.53;4958771;28;103389;-73
2024/02/24 01:58:36;;;;;;;;;6.25;5.25;;;;;-143.90;100.00;74250.25;4965669;28;101854;-73
2024/02/24 02:01:05;;;;;;;;;12.50;11.75;;;;;-143.90;100.00;74258.53;4967837;28;102012;-73
2024/02/24 02:03:33;;;;;;;;;9.00;8.00;;;;;-143.90;100.00;74248.19;4963696;28;102071;-73
2024/02/24 02:06:02;;;;;;;;;10.25;9.00;;;;;-143.90;100.00;74258.53;4976614;28;103561;-73
2024/02/24 02:08:29;;;;;;;;;11.25;11.25;;;;;-143.90;100.00;74273.00;4963711;28;101763;-74
2024/02/24 02:10:56;;;;;;;;;10.00;9.00;;;;;-143.90;100.00;74275.06;4972222;28;101668;-73
2024/02/24 02:13:24;;;;;;;;;13.00;10.50;;;;;-143.90;100.00;74283.34;4980023;28;101688;-73
2024/02/24 02:15:53;;;;;;;;;14.50;9.25;;;;;-143.90;100.00;74291.59;4974303;28;103503;-74
2024/02/24 02:18:21;;;;;;;;;10.00;9.75;;;;;-143.90;100.00;74301.94;4977540;28;102107;-74
2024/02/24 02:20:50;;;;;;;;;13.25;10.50;;;;;-143.90;100.00;74301.94;4976630;28;101940;-74
2024/02/24 02:23:17;;;;;;;;;8.75;7.25;;;;;-143.90;100.00;74295.75;4967586;28;101836;-73
2024/02/24 02:25:43;;;;;;;;;7.50;6.00;;;;;-143.90;100.00;74291.59;4978402;28;108165;-74
2024/02/24 02:28:10;;;;;;;;;7.00;7.00;;;;;-143.90;100.00;74291.59;4973767;28;101721;-74
2024/02/24 02:30:37;;;;;;;;;6.00;6.00;;;;;-143.90;100.00;74283.34;4980886;28;101772;-74
2024/02/24 02:33:06;;;;;;;;;7.25;5.00;;;;;-143.90;100.00;74285.41;4964356;28;102270;-74
2024/02/24 02:35:33;;;;;;;;;3.50;3.25;;;;;-143.90;100.00;74279.22;4978454;28;103343;-74
2024/02/24 02:38:00;;;;;;;;;7.00;7.00;;;;;-143.90;100.00;74281.28;4970793;28;101906;-74
2024/02/24 02:40:27;;;;;;;;;5.50;4.00;;;;;-143.90;100.00;74277.13;4952844;28;101748;-74
2024/02/24 02:42:54;;;;;;;;;7.00;6.50;;;;;-143.90;100.00;74266.81;4975334;28;101616;-74
2024/02/24 02:45:21;;;;;;;;;6.00;4.00;;;;;-143.90;100.00;74260.59;4978258;28;106938;-74
2024/02/24 02:47:47;;;;;;;;;6.00;4.50;;;;;-143.90;100.00;74248.19;4965169;28;101834;-74
2024/02/24 02:50:14;;;;;;;;;7.00;6.25;;;;;-143.90;100.00;74242.00;4976837;28;101778;-73
2024/02/24 02:52:41;;;;;;;;;7.00;7.00;;;;;-143.90;100.00;74229.59;4970575;28;101984;-73
2024/02/24 02:55:08;;;;;;;;;4.00;3.75;;;;;-143.90;100.00;74225.47;4969936;28;104468;-73
2024/02/24 02:57:35;;;;;;;;;6.00;5.25;;;;;-143.90;100.00;74223.41;4975388;28;101697;-73
2024/02/24 03:00:04;;;;;;;;;5.50;4.00;;;;;-143.90;100.00;74221.31;4978569;28;101862;-73
2024/02/24 03:02:31;;;;;;;;;6.50;4.00;;;;;-143.90;100.00;74211.00;4978081;28;101922;-73
2024/02/24 03:04:58;;;;;;;;;3.75;3.00;;;;;-143.90;100.00;74211.00;4964500;28;103442;-73
2024/02/24 03:07:24;;;;;;;;;4.75;3.00;;;;;-143.90;100.00;74206.88;4978591;28;104302;-74
2024/02/24 03:09:51;;;;;;;;;8.00;7.00;;;;;-143.90;100.00;74208.94;4977636;28;102540;-73
2024/02/24 03:12:18;;;;;;;;;5.25;5.25;;;;;-143.90;100.00;74188.25;4980135;28;101986;-73
2024/02/24 03:14:44;;;;;;;;;5.50;5.50;;;;;-143.90;100.00;74188.25;4971308;28;103490;-73
2024/02/24 03:17:11;;;;;;;;;5.00;5.00;;;;;-143.90;100.00;74167.59;4957948;28;101709;-73
2024/02/24 03:19:39;;;;;;;;;3.50;3.00;;;;;-143.90;100.00;74163.47;4964894;28;101752;-73
2024/02/24 03:22:06;;;;;;;;;9.75;8.00;;;;;-143.90;100.00;74151.06;4959532;28;101718;-73
2024/02/24 03:24:33;;;;;;;;;8.00;7.00;;;;;-143.90;100.00;74130.38;4978872;28;103413;-73
2024/02/24 03:27:00;;;;;;;;;7.50;7.00;;;;;-143.90;100.00;74113.84;4964596;28;101896;-73
2024/02/24 03:29:27;;;;;;;;;6.00;3.50;;;;;-143.90;100.00;74105.59;4970847;28;101830;-73
2024/02/24 03:31:53;;;;;;;;;7.25;5.00;;;;;-143.90;100.00;74113.84;4978295;28;102950;-73
2024/02/24 03:34:20;;;;;;;;;4.00;4.00;;;;;-143.90;100.00;74113.84;4979553;28;103504;-73
2024/02/24 03:36:47;;;;;;;;;6.75;6.75;;;;;-143.90;100.00;74118.00;4982040;28;101870;-73
2024/02/24 03:39:14;;;;;;;;;8.00;6.25;;;;;-143.90;100.00;74107.66;4974032;28;101931;-73
2024/02/24 03:41:40;;;;;;;;;4.75;4.00;;;;;-143.90;100.00;74109.72;4979166;28;101697;-73
2024/02/24 03:44:07;;;;;;;;;6.00;5.00;;;;;-143.90;100.00;74113.84;4971370;28;103461;-73
2024/02/24 03:46:34;;;;;;;;;6.00;5.00;;;;;-143.90;100.00;74122.13;4962979;28;102642;-74
2024/02/24 03:49:01;;;;;;;;;7.00;6.75;;;;;-143.90;100.00;74126.25;4951687;28;101506;-74
2024/02/24 03:51:27;;;;;;;;;8.00;5.25;;;;;-143.90;100.00;74122.13;4973184;28;101913;-73
2024/02/24 03:53:54;;;;;;;;;8.00;7.25;;;;;-143.90;100.00;74118.00;4975771;28;103434;-74
2024/02/24 03:56:21;;;;;;;;;7.75;7.50;;;;;-143.90;100.00;74118.00;4968678;28;101862;-74
2024/02/24 03:58:47;;;;;;;;;8.75;6.75;;;;;-143.90;100.00;74109.72;4975665;28;101826;-74
2024/02/24 04:01:17;;;;;;;;;2.75;2.00;;;;;-143.90;100.00;74118.00;4964001;28;105352;-73
2024/02/24 04:03:43;;;;;;;;;5.25;5.25;;;;;-143.90;100.00;74115.91;4971446;28;108107;-73
2024/02/24 04:06:10;;;;;;;;;5.50;5.50;;;;;-143.90;100.00;74113.84;4979826;28;101595;-74
2024/02/24 04:08:37;;;;;;;;;4.50;4.00;;;;;-143.90;100.00;74113.84;4967105;28;101556;-73
2024/02/24 04:11:03;;;;;;;;;5.75;4.50;;;;;-143.90;100.00;74111.78;4976195;28;101663;-74
2024/02/24 04:13:30;;;;;;;;;3.50;3.00;;;;;-143.90;100.00;74118.00;4981562;28;103325;-74
2024/02/24 04:15:57;;;;;;;;;4.00;4.00;;;;;-143.90;100.00;74118.00;4966397;28;101614;-74
2024/02/24 04:18:24;;;;;;;;;5.00;3.00;;;;;-143.90;100.00;74109.72;4966885;28;103818;-74
2024/02/24 04:20:50;;;;;;;;;3.75;3.00;;;;;-143.90;100.00;74097.31;4968651;28;101890;-73
2024/02/24 04:23:17;;;;;;;;;2.00;2.00;;;;;-143.90;100.00;74095.25;4968964;28;103522;-73
2024/02/24 04:25:44;;;;;;;;;3.50;2.75;;;;;-143.90;100.00;74097.31;4983223;28;101947;-73
2024/02/24 04:28:12;;;;;;;;;2.00;2.00;;;;;-143.90;100.00;74091.13;4970455;28;101844;-73
2024/02/24 04:30:39;;;;;;;;;2.75;2.00;;;;;-143.90;100.00;74091.13;4975452;28;101877;-73
2024/02/24 04:33:06;;;;;;;;;4.00;3.00;;;;;-143.90;100.00;74089.06;4945722;28;103496;-73
2024/02/24 04:35:33;;;;;;;;;2.75;2.00;;;;;-143.90;100.00;74099.38;4962124;28;101953;-73
2024/02/24 04:38:00;;;;;;;;;1.00;1.00;;;;;-143.90;100.00;74101.44;4971485;28;101841;-73
2024/02/24 04:40:27;;;;;;;;;4.75;3.50;;;;;-143.90;100.00;74107.66;4974810;28;101912;-73
2024/02/24 04:42:53;;;;;;;;;2.25;2.00;;;;;-143.90;100.00;74111.78;4976304;28;103458;-73
2024/02/24 04:45:20;;;;;;;;;3.50;3.00;;;;;-143.90;100.00;74105.59;4972072;28;103097;-73
2024/02/24 04:47:46;;;;;;;;;2.00;2.00;;;;;-143.90;100.00;74105.59;4974946;28;102152;-73
2024/02/24 04:50:14;;;;;;;;;2.25;2.25;;;;;-143.90;100.00;74105.59;4972634;28;101835;-73
2024/02/24 04:52:41;;;;;;;;;3.00;3.00;;;;;-143.90;100.00;74109.72;4969212;28;103470;-73
2024/02/24 04:55:08;;;;;;;;;2.25;2.25;;;;;-143.90;100.00;74109.72;4968178;28;101609;-73
2024/02/24 04:57:34;;;;;;;;;3.00;2.00;;;;;-143.90;100.00;74109.72;4974181;28;103169;-73
2024/02/24 05:00:01;;;;;;;;;2.00;2.00;;;;;-143.90;100.00;74113.84;4962881;28;101895;-73
2024/02/24 05:02:28;;;;;;;;;1.50;1.50;;;;;-143.90;100.00;74122.13;4965258;28;103711;-73
2024/02/24 05:04:54;;;;;;;;;2.00;2.00;;;;;-143.90;100.00;74132.44;4978857;28;101825;-72
2024/02/24 05:07:21;;;;;;;;;1.50;1.00;;;;;-143.90;100.00;74122.13;4970028;28;101483;-72
2024/02/24 05:09:48;;;;;;;;;1.75;1.75;;;;;-143.90;100.00;74113.84;4976909;28;102338;-74
2024/02/24 05:12:15;;;;;;;;;1.00;1.00;;;;;-143.90;100.00;74118.00;4971837;28;108061;-73
2024/02/24 05:14:42;;;;;;;;;2.00;1.25;;;;;-143.90;100.00;74120.06;4976909;28;101952;-73
2024/02/24 05:17:10;;;;;;;;;2.00;1.50;;;;;-143.90;100.00;74120.06;4968117;28;102029;-73
2024/02/24 05:19:37;;;;;;;;;1.00;1.00;;;;;-143.90;100.00;74118.00;4975639;28;104463;-73
2024/02/24 05:22:04;;;;;;;;;1.25;1.25;;;;;-143.90;100.00;74111.78;4965768;28;103457;-73
2024/02/24 05:24:31;;;;;;;;;1.00;1.00;;;;;-143.90;100.00;74120.06;4976088;28;101894;-73
2024/02/24 05:26:57;;;;;;;;;1.00;1.00;;;;;-143.90;100.00;74113.84;4966567;28;101867;-73
2024/02/24 05:29:24;;;;;;;;;3.00;2.00;;;;;-143.90;100.00;74113.84;4967331;28;101795;-73
2024/02/24 05:31:51;;;;;;;;;1.00;1.00;;;;;-143.90;100.00;74113.84;4971852;28;103595;-73
2024/02/24 05:34:17;;;;;;;;;1.00;0.50;;;;;-143.90;100.00;74115.91;4978601;28;102247;-73
2024/02/24 05:36:44;;;;;;;;;1.00;1.00;;;;;-143.90;100.00;74109.72;4971361;28;101702;-73
2024/02/24 05:39:12;;;;;;;;;2.00;1.00;;;;;-143.90;100.00;74118.00;4970093;28;101963;-73
2024/02/24 05:41:39;;;;;;;;;1.50;1.00;;;;;-143.90;100.00;74122.13;4961723;28;103342;-73
2024/02/24 05:44:06;;;;;;;;;1.00;1.00;;;;;-143.90;100.00;74138.66;4971731;28;101489;-73
2024/02/24 05:46:33;;;;;;;;;0.75;0.75;;;;;-143.90;100.00;74146.91;4967935;28;101536;-73
2024/02/24 05:48:59;;;;;;;;;0.00;0.00;;;;;-143.90;100.00;74155.19;4975533;28;102233;-73
2024/02/24 05:51:26;;;;;;;;;1.00;1.00;;;;;-143.90;100.00;74165.53;4961370;28;103150;-73
2024/02/24 05:53:53;;;;;;;;;0.00;0.00;;;;;-143.90;100.00;74169.66;4966236;28;101773;-73
2024/02/24 05:56:20;;;;;;;;;0.00;0.00;;;;;-143.90;100.00;74177.94;4977574;28;102176;-73
2024/02/24 05:58:47;;;;;;;;;0.00;0.00;;;;;-143.90;100.00;74184.13;4977687;28;101990;-73
2024/02/24 06:01:14;;;;;;;;;1.00;0.00;;;;;-143.90;100.00;74190.31;4956014;28;103558;-73
2024/02/24 06:03:41;;;;;;;;;0.00;0.00;;;;;-143.90;100.00;74200.66;4970096;28;101607;-72
2024/02/24 06:06:07;;;;;;;;;0.00;0.00;;;;;-143.90;100.00;74200.66;4976726;28;101782;-73
2024/02/24 06:08:35;;;;;;;;;0.75;0.75;;;;;-143.90;100.00;74200.66;4973866;28;101973;-72
2024/02/24 06:11:01;;;;;;;;;0.25;0.00;;;;;-143.90;100.00;74206.88;4967886;28;103956;-73
2024/02/24 06:13:28;;;;;;;;;0.75;0.75;;;;;-143.90;100.00;74217.19;4960660;28;102565;-73
2024/02/24 06:15:56;;;;;;;;;1.75;0.50;;;;;-143.90;100.00;74227.53;4966016;28;103551;-73
2024/02/24 06:18:23;;;;;;;;;2.75;1.50;;;;;-143.90;100.00;74237.88;4965721;28;102185;-73
2024/02/24 06:20:52;;;;;;;;;2.00;2.00;;;;;-143.90;100.00;74237.88;4968664;28;103389;-73
2024/02/24 06:23:19;;;;;;;;;1.00;1.00;;;;;-143.90;100.00;74244.06;4971995;28;101678;-73
2024/02/24 06:25:46;;;;;;;;;4.00;4.00;;;;;-143.90;100.00;74258.53;4963218;28;101554;-73
2024/02/24 06:28:14;;;;;;;;;6.25;6.00;;;;;-143.90;100.00;74281.28;4967270;28;102339;-73
2024/02/24 06:30:41;;;;;;;;;9.00;7.50;;;;;-143.90;100.00;74314.34;4956895;28;103405;-73
2024/02/24 06:33:08;;;;;;;;;9.25;9.25;;;;;-143.90;100.00;74363.94;4963637;28;102030;-73
2024/02/24 06:35:35;;;;;;;;;10.00;10.00;;;;;-143.90;100.00;74392.88;4969954;28;101578;-74
2024/02/24 06:38:02;;;;;;;;;16.00;16.00;;;;;-143.90;100.00;74425.97;4969813;28;101630;-74
2024/02/24 06:40:29;;;;;;;;;20.25;16.25;;;;;-143.90;100.00;74461.09;4972855;28;103553;-73
2024/02/24 06:43:10;;;;;;;;;13.00;12.75;;;;;-143.90;100.00;74475.56;4966358;28;105703;-73
2024/02/24 06:45:37;;;;;;;;;17.50;14.75;;;;;-143.90;100.00;74485.91;4964175;28;101628;-73
2024/02/24 06:48:04;;;;;;;;;18.00;15.25;;;;;-143.90;100.00;74508.63;4968253;28;101566;-73
2024/02/24 06:50:31;;;;;;;;;20.75;18.00;;;;;-143.90;100.00;74552.03;4968932;28;103531;-73
2024/02/24 06:52:58;;;;;;;;;15.75;14.00;;;;;-143.90;100.00;74547.91;4970618;28;101772;-73
2024/02/24 06:55:24;;;;;;;;;11.75;10.25;;;;;-143.90;100.00;74593.38;4959821;28;101926;-74
2024/02/24 06:57:51;;;;;;;;;8.00;6.00;;;;;-143.90;100.00;74614.06;4982230;28;101649;-74
2024/02/24 07:00:18;;;;;;;;;4.50;4.00;;;;;-143.90;100.00;74626.47;4974186;28;103400;-75
2024/02/24 07:02:46;;;;;;;;;7.00;4.00;;;;;-143.90;100.00;74626.47;4970331;28;102116;-74
2024/02/24 07:05:13;;;;;;;;;6.25;5.00;;;;;-143.90;100.00;74651.28;4958867;28;101923;-74
2024/02/24 07:07:40;;;;;;;;;3.00;3.00;;;;;-143.90;100.00;74657.47;4964089;28;101697;-74
2024/02/24 07:10:08;;;;;;;;;3.00;2.25;;;;;-143.90;100.00;74684.34;4975823;28;103436;-74
2024/02/24 07:12:36;;;;;;;;;2.25;2.25;;;;;-143.90;100.00;74700.88;4969267;28;101658;-74
2024/02/24 07:15:07;;;;;;;;;2.75;2.75;;;;;-143.90;100.00;74702.94;4973521;28;101424;-73
2024/02/24 07:17:34;;;;;;;;;2.25;2.25;;;;;-143.90;100.00;74713.28;4967369;28;102165;-74
2024/02/24 07:20:01;;;;;;;;;6.00;3.25;;;;;-143.90;100.00;74740.16;4968660;28;103599;-73
2024/02/24 07:22:28;;;;;;;;;4.50;4.00;;;;;-143.90;100.00;74750.50;4969976;28;103148;-73
2024/02/24 07:24:54;;;;;;;;;8.00;6.50;;;;;-143.90;100.00;74764.97;4966893;28;101572;-73
2024/02/24 07:27:21;;;;;;;;;7.25;7.25;;;;;-143.90;100.00;74781.50;4976362;28;102137;-73
2024/02/24 07:29:48;;;;;;;;;6.25;6.00;;;;;-143.90;100.00;74785.63;4965700;28;103546;-73
2024/02/24 07:32:15;;;;;;;;;7.00;6.25;;;;;-143.90;100.00;74798.03;4970824;28;101716;-73
2024/02/24 07:34:41;;;;;;;;;7.50;7.00;;;;;-143.90;100.00;74818.72;4972245;28;102283;-73
2024/02/24 07:37:08;;;;;;;;;8.50;7.00;;;;;-143.90;100.00;74822.84;4970392;28;101916;-73
2024/02/24 07:39:36;;;;;;;;;4.75;4.75;;;;;-143.90;100.00;74824.91;4973468;28;103401;-73
2024/02/24 07:42:03;;;;;;;;;8.00;7.25;;;;;-143.90;100.00;74831.13;4968262;28;101399;-74
2024/02/24 07:44:29;;;;;;;;;7.00;4.50;;;;;-143.90;100.00;74820.78;4977810;28;102987;-73
2024/02/24 07:46:56;;;;;;;;;6.50;6.50;;;;;-143.90;100.00;74849.72;4975952;28;102095;-73
2024/02/24 07:49:23;;;;;;;;;8.75;8.50;;;;;-143.90;100.00;74862.13;4978385;28;103915;-73
2024/02/24 07:51:50;;;;;;;;;7.00;7.00;;;;;-143.90;100.00;74878.66;4969499;28;101476;-74
2024/02/24 07:54:17;;;;;;;;;4.00;3.50;;;;;-143.90;100.00;74878.66;4972678;28;101567;-73
2024/02/24 07:56:45;;;;;;;;;2.00;2.00;;;;;-143.90;100.00;74893.13;4971941;28;103059;-74
2024/02/24 07:59:12;;;;;;;;;3.50;1.50;;;;;-143.90;100.00;74876.59;4962941;28;103294;-74
2024/02/24 08:01:39;;;;;;;;;3.00;2.50;;;;;-143.90;100.00;74886.94;4969694;28;102335;-75
2024/02/24 08:04:06;;;;;;;;;2.00;2.00;;;;;-143.90;100.00;74899.34;4966286;28;101699;-73
2024/02/24 08:06:33;;;;;;;;;1.25;1.00;;;;;-143.90;100.00;74903.47;4963733;28;101555;-74
2024/02/24 08:09:01;;;;;;;;;3.50;2.75;;;;;-143.90;100.00;74924.13;4963798;28;103570;-74
2024/02/24 08:11:29;;;;;;;;;4.75;3.50;;;;;-143.90;100.00;74924.13;4973323;28;102232;-74
2024/02/24 08:13:56;;;;;;;;;5.50;3.50;;;;;-143.90;100.00;74934.47;4975055;28;101541;-74
2024/02/24 08:16:23;;;;;;;;;0.00;0.00;;;;;-143.90;100.00;74938.59;4975399;28;105454;-74
2024/02/24 08:18:50;;;;;;;;;1.00;1.00;;;;;-143.90;100.00;74946.88;4966696;28;108123;-75
2024/02/24 08:21:17;;;;;;;;;3.00;2.00;;;;;-143.90;100.00;74961.34;4971084;28;101983;-74
2024/02/24 08:23:44;;;;;;;;;4.00;3.75;;;;;-143.90;100.00;74979.97;4970459;28;101601;-74
2024/02/24 08:26:11;;;;;;;;;3.75;3.00;;;;;-143.90;100.00;74973.75;4981045;28;101773;-74
2024/02/24 08:28:38;;;;;;;;;4.00;3.00;;;;;-143.90;100.00;74977.88;4974270;28;103325;-74
2024/02/24 08:31:04;;;;;;;;;2.75;2.75;;;;;-143.90;100.00;74982.03;4973860;28;105002;-74
2024/02/24 08:33:31;;;;;;;;;3.00;2.00;;;;;-143.90;100.00;74973.75;4975629;28;102160;-74
2024/02/24 08:35:58;;;;;;;;;4.00;2.50;;;;;-143.90;100.00;74959.28;4968891;28;102079;-74
2024/02/24 08:38:27;;;;;;;;;4.00;3.00;;;;;-143.90;100.00;74969.63;4967390;28;104982;-74
2024/02/24 08:40:55;;;;;;;;;3.50;3.25;;;;;-143.90;100.00;74959.28;4966383;28;102011;-74
2024/02/24 08:43:21;;;;;;;;;2.75;2.00;;;;;-143.90;100.00;74953.09;4974840;28;102011;-74
2024/02/24 08:45:48;;;;;;;;;4.00;3.75;;;;;-143.90;100.00;74957.22;4970825;28;101963;-74
2024/02/24 08:48:15;;;;;;;;;8.75;6.25;;;;;-143.90;100.00;74979.97;4964632;28;103573;-74
2024/02/24 08:50:41;;;;;;;;;10.50;9.00;;;;;-143.90;100.00;74986.16;4968751;28;101776;-74
2024/02/24 08:53:08;;;;;;;;;11.00;9.00;;;;;-143.90;100.00;74961.34;4953812;28;101826;-74
2024/02/24 08:55:35;;;;;;;;;12.25;10.00;;;;;-143.90;100.00;74992.38;4961225;28;102168;-73
2024/02/24 08:58:01;;;;;;;;;9.00;8.00;;;;;-143.90;100.00;74998.56;4974461;28;103405;-73
2024/02/24 09:00:28;;;;;;;;;7.75;7.00;;;;;-143.90;100.00;75013.03;4971635;28;101916;-74
2024/02/24 09:02:55;;;;;;;;;11.00;7.50;;;;;-143.90;100.00;75031.63;4969791;28;101413;-75
2024/02/24 09:05:22;;;;;;;;;8.25;6.75;;;;;-143.90;100.00;75023.38;4973800;28;104667;-74
2024/02/24 09:07:49;;;;;;;;;6.25;6.00;;;;;-143.90;100.00;75044.03;4975548;28;107991;-74
2024/02/24 09:10:16;;;;;;;;;6.75;6.50;;;;;-143.90;100.00;75050.25;4973490;28;101855;-74
2024/02/24 09:12:42;;;;;;;;;6.25;5.00;;;;;-143.90;100.00;75035.78;4972788;28;101798;-74
2024/02/24 09:15:09;;;;;;;;;4.00;3.00;;;;;-143.90;100.00;75039.91;4966504;28;102016;-74
2024/02/24 09:17:36;;;;;;;;;3.25;3.00;;;;;-143.90;100.00;75044.03;4970471;28;103552;-74
2024/02/24 09:20:03;;;;;;;;;6.00;6.00;;;;;-143.90;100.00;75052.31;4977796;28;101414;-74
2024/02/24 09:22:30;;;;;;;;;6.75;4.50;;;;;-143.90;100.00;75060.59;4980989;28;102089;-74
2024/02/24 09:24:57;;;;;;;;;6.00;4.00;;;;;-143.90;100.00;75075.06;4960893;28;102038;-75
2024/02/24 09:27:23;;;;;;;;;7.00;6.75;;;;;-143.90;100.00;75068.84;4970401;28;103582;-74
2024/02/24 09:29:50;;;;;;;;;2.00;2.00;;;;;-143.90;100.00;75054.38;4971746;28;101524;-74
2024/02/24 09:32:17;;;;;;;;;5.50;4.00;;;;;-143.90;100.00;75056.44;4968024;28;104767;-74
2024/02/24 09:34:45;;;;;;;;;6.00;5.00;;;;;-143.90;100.00;75031.63;4971670;28;103236;-74
2024/02/24 09:37:11;;;;;;;;;6.00;6.00;;;;;-143.90;100.00;75041.97;4966914;28;103486;-73
2024/02/24 09:39:42;;;;;;;;;7.75;6.75;;;;;-143.90;100.00;75035.78;4968874;28;101735;-74
2024/02/24 09:42:09;;;;;;;;;6.50;6.25;;;;;-143.90;100.00;75033.72;4970219;28;101670;-73
2024/02/24 09:44:38;;;;;;;;;3.25;2.75;;;;;-143.90;100.00;75010.97;4976474;28;101832;-74
2024/02/24 09:47:05;;;;;;;;;5.00;5.00;;;;;-143.90;100.00;74988.22;4971030;28;103822;-74
2024/02/24 09:49:32;;;;;;;;;6.00;4.00;;;;;-143.90;100.00;74998.56;4969461;28;101533;-73
2024/02/24 09:52:00;;;;;;;;;10.50;8.00;;;;;-143.90;100.00;75017.16;4970801;28;101775;-74
2024/02/24 09:54:27;;;;;;;;;8.00;7.00;;;;;-143.90;100.00;74988.22;4977739;28;101885;-74
2024/02/24 09:56:55;;;;;;;;;12.25;8.75;;;;;-143.90;100.00;74973.75;4979736;28;103346;-74
2024/02/24 09:59:25;;;;;;;;;9.50;6.25;;;;;-143.90;100.00;74975.81;4975226;28;101657;-74
2024/02/24 10:01:52;;;;;;;;;8.75;7.75;;;;;-143.90;100.00;75015.09;4972731;28;102103;-74
2024/02/24 10:04:19;;;;;;;;;8.50;7.75;;;;;-143.90;100.00;75021.31;4963268;28;101981;-74
2024/02/24 10:06:46;;;;;;;;;8.00;7.00;;;;;-143.90;100.00;74992.38;4968825;28;103467;-74
2024/02/24 10:09:13;;;;;;;;;5.00;4.50;;;;;-143.90;100.00;74986.16;4963274;28;101933;-74
2024/02/24 10:11:40;;;;;;;;;8.00;6.00;;;;;-143.90;100.00;74965.50;4965135;28;101520;-74
2024/02/24 10:14:08;;;;;;;;;6.25;6.00;;;;;-143.90;100.00;74959.28;4971440;28;101763;-74
2024/02/24 10:16:36;;;;;;;;;15.25;8.00;;;;;-143.90;100.00;74971.69;4973398;28;103376;-74
2024/02/24 10:19:07;;;;;;;;;7.25;7.00;;;;;-143.90;100.00;74940.69;4967582;28;101378;-74
2024/02/24 10:21:34;;;;;;;;;13.00;12.25;;;;;-143.90;100.00;74940.69;4974992;28;101931;-74
2024/02/24 10:24:02;;;;;;;;;6.50;6.50;;;;;-143.90;100.00;74911.72;4970302;28;101768;-74
2024/02/24 10:26:29;;;;;;;;;8.50;7.75;;;;;-143.90;100.00;74891.06;4967893;28;103479;-74
2024/02/24 10:28:57;;;;;;;;;12.25;11.00;;;;;-143.90;100.00;74924.13;4973441;28;101622;-74
2024/02/24 10:31:26;;;;;;;;;8.00;8.00;;;;;-143.90;100.00;74924.13;4978125;28;101572;-74
2024/02/24 10:33:54;;;;;;;;;11.50;10.00;;;;;-143.90;100.00;74907.59;4985755;28;101530;-74
2024/02/24 10:36:22;;;;;;;;;7.50;7.50;;;;;-143.90;100.00;74911.72;4973889;28;107950;-74
2024/02/24 10:38:49;;;;;;;;;11.00;8.00;;;;;-143.90;100.00;74924.13;4966418;28;102342;-74
2024/02/24 10:41:22;;;;;;;;;11.00;9.25;;;;;-143.90;100.00;74911.72;4974025;28;101715;-74
2024/02/24 10:43:53;;;;;;;;;9.25;7.00;;;;;-143.90;100.00;74895.19;4976245;28;102016;-74
2024/02/24 10:46:35;;;;;;;;;4.25;4.25;;;;;-143.90;100.00;74837.31;4968612;28;107981;-74
2024/02/24 10:49:04;;;;;;;;;2.00;2.00;;;;;-143.90;100.00;74806.31;4963804;28;101839;-74
2024/02/24 10:51:35;;;;;;;;;7.50;5.00;;;;;-143.90;100.00;74800.09;4974643;28;102269;-73
2024/02/24 10:54:11;;;;;;;;;6.00;4.00;;;;;-143.90;100.00;74777.38;4978799;28;101807;-73
2024/02/24 10:56:39;;;;;;;;;8.00;7.25;;;;;-143.90;100.00;74746.34;4972972;28;103478;-74